Time;durP1;ratioP1;P1;durP2;ratioP2;P2;SDS_P1;SDS_P2;PMS_P1;PMS_P2;Temp;Humidity;BMP_temperature;BMP_pressure;BME280_temperature;BME280_humidity;BME280_pressure;Samples;Min_cycle;Max_cycle;Signal;HPM_P1;HPM_P2
2021/06/13 00:07:37;;;;;;;;;;;;;;;;;;;;;
2021/06/13 00:12:16;;;;;;;;;;;;;;;;;;;;;
2021/06/13 00:20:59;;;;;;;11.93;4.50;;;13.30;88.70;;;;;;4636976;30;20046;-86
2021/06/13 00:27:21;;;;;;;9.35;4.10;;;13.20;89.20;;;;;;4730655;30;20128;-87
2021/06/13 00:38:28;;;;;;;8.50;3.65;;;13.10;89.40;;;;;;4738088;30;20428;-86
2021/06/13 00:41:31;;;;;;;9.07;3.95;;;13.10;89.40;;;;;;4722272;30;20500;-88
2021/06/13 00:43:59;;;;;;;7.88;4.07;;;13.00;89.50;;;;;;4704537;30;20064;-87
2021/06/13 00:46:50;;;;;;;9.90;4.15;;;13.00;89.70;;;;;;4702605;30;20044;-86
2021/06/13 00:50:09;;;;;;;7.57;3.85;;;13.10;90.00;;;;;;4751310;29;20054;-86
2021/06/13 00:58:17;;;;;;;10.13;4.35;;;13.30;89.90;;;;;;4760193;30;20071;-86
2021/06/13 01:01:32;;;;;;;11.35;4.53;;;13.50;89.70;;;;;;4775778;29;20095;-86
2021/06/13 01:05:37;;;;;;;;;;;;;;;;;;;;;
2021/06/13 01:09:08;;;;;;;9.95;4.00;;;13.60;89.50;;;;;;4800107;29;20061;-86
2021/06/13 01:12:15;;;;;;;11.02;5.22;;;13.70;89.60;;;;;;4775278;29;20055;-86
2021/06/13 01:15:11;;;;;;;8.25;4.15;;;13.70;89.60;;;;;;4791490;29;20047;-86
2021/06/13 01:19:07;;;;;;;7.53;4.38;;;13.70;89.90;;;;;;4766894;30;20052;-86
2021/06/13 01:22:22;;;;;;;9.20;4.40;;;13.70;90.00;;;;;;4751586;30;20062;-86
2021/06/13 01:29:48;;;;;;;9.93;4.60;;;13.50;90.30;;;;;;4748133;30;20067;-86
2021/06/13 01:36:38;;;;;;;12.85;5.07;;;13.40;90.40;;;;;;4786455;29;20057;-87
2021/06/13 01:43:15;;;;;;;10.13;4.45;;;13.30;90.60;;;;;;4803695;29;20050;-87
2021/06/13 01:47:00;;;;;;;;;;;;;;;;;;;;;
2021/06/13 02:20:18;;;;;;;9.95;4.78;;;12.60;91.00;;;;;;4694920;30;20048;-86
2021/06/13 02:24:20;;;;;;;;;;;;;;;;;;;;;
2021/06/13 02:36:37;;;;;;;11.02;5.25;;;12.50;91.40;;;;;;4747009;29;20059;-85
2021/06/13 02:40:30;;;;;;;;;;;;;;;;;;;;;
2021/06/13 02:43:41;;;;;;;10.15;4.65;;;12.50;91.60;;;;;;4720793;30;20057;-85
2021/06/13 02:47:24;;;;;;;13.32;4.90;;;12.50;91.60;;;;;;4692880;30;20058;-86
2021/06/13 02:50:12;;;;;;;8.10;4.55;;;12.40;91.60;;;;;;4664022;30;20076;-86
2021/06/13 02:58:42;;;;;;;9.07;3.92;;;12.40;91.80;;;;;;4694789;30;20069;-86
2021/06/13 03:02:05;;;;;;;9.05;4.35;;;12.40;91.90;;;;;;4705920;30;20052;-87
2021/06/13 03:12:47;;;;;;;8.60;3.38;;;12.30;91.90;;;;;;4738306;30;20047;-85
2021/06/13 03:15:22;;;;;;;8.85;4.35;;;12.30;91.90;;;;;;4772163;29;20194;-87
2021/06/13 03:18:02;;;;;;;9.68;3.50;;;12.30;92.00;;;;;;4786993;29;20051;-85
2021/06/13 03:20:38;;;;;;;11.95;4.95;;;12.30;92.10;;;;;;4791215;29;20043;-86
2021/06/13 03:23:11;;;;;;;8.07;3.22;;;12.30;92.20;;;;;;4791308;29;20046;-85
2021/06/13 03:25:41;;;;;;;8.38;4.57;;;12.30;92.30;;;;;;4795329;29;20046;-85
2021/06/13 03:28:23;;;;;;;9.43;4.47;;;12.30;92.40;;;;;;4789344;29;20058;-86
2021/06/13 03:31:25;;;;;;;12.25;5.10;;;12.30;92.50;;;;;;4788827;29;20396;-86
2021/06/13 03:34:14;;;;;;;11.10;4.65;;;12.30;92.50;;;;;;4794818;29;20498;-86
2021/06/13 03:36:54;;;;;;;9.80;4.93;;;12.30;92.50;;;;;;4797512;29;20054;-85
2021/06/13 03:39:50;;;;;;;12.23;5.35;;;12.30;92.60;;;;;;4798134;29;20054;-85
2021/06/13 03:42:25;;;;;;;12.10;5.25;;;12.30;92.60;;;;;;4825696;29;20046;-85
2021/06/13 03:45:06;;;;;;;13.38;5.40;;;12.30;92.70;;;;;;4796493;29;20034;-86
2021/06/13 03:47:38;;;;;;;10.50;5.22;;;12.30;92.80;;;;;;4788875;29;20436;-85
2021/06/13 03:50:17;;;;;;;11.55;5.57;;;12.30;92.90;;;;;;4813138;29;20046;-85
2021/06/13 03:52:47;;;;;;;13.85;6.13;;;12.30;93.00;;;;;;4807111;29;20053;-85
2021/06/13 03:55:26;;;;;;;13.02;5.80;;;12.30;93.10;;;;;;4811310;29;20066;-84
2021/06/13 03:57:54;;;;;;;13.38;5.82;;;12.30;93.20;;;;;;4793134;29;20035;-84
2021/06/13 04:03:26;;;;;;;11.95;6.13;;;12.30;93.30;;;;;;4807934;29;20092;-86
2021/06/13 04:06:10;;;;;;;12.98;5.63;;;12.30;93.30;;;;;;4811090;29;20046;-84
2021/06/13 04:08:44;;;;;;;10.57;5.40;;;12.30;93.30;;;;;;4794351;29;20405;-85
2021/06/13 04:11:12;;;;;;;11.52;5.63;;;12.30;93.30;;;;;;4798026;29;20041;-84
2021/06/13 04:13:43;;;;;;;13.38;6.18;;;12.40;93.20;;;;;;4789977;29;20362;-85
2021/06/13 04:16:30;;;;;;;;;;;;;;;;;;;;;
2021/06/13 04:19:21;;;;;;;10.70;5.45;;;12.40;93.30;;;;;;4813975;29;20525;-86
2021/06/13 04:22:17;;;;;;;10.35;4.93;;;12.50;93.30;;;;;;4813814;29;20039;-87
2021/06/13 04:24:59;;;;;;;9.75;4.65;;;12.50;93.20;;;;;;4795527;29;20045;-87
2021/06/13 04:27:49;;;;;;;12.35;4.53;;;12.60;93.20;;;;;;4795075;29;20046;-86
2021/06/13 04:30:49;;;;;;;10.25;5.05;;;12.60;93.10;;;;;;4798884;29;20035;-87
2021/06/13 04:33:37;;;;;;;7.90;4.03;;;12.80;93.10;;;;;;4786115;29;20038;-87
2021/06/13 04:36:14;;;;;;;9.88;4.40;;;12.90;93.00;;;;;;4793321;29;20059;-86
2021/06/13 04:38:46;;;;;;;11.57;5.43;;;13.00;92.90;;;;;;4796948;29;20058;-87
2021/06/13 04:41:34;;;;;;;10.85;4.68;;;13.20;92.80;;;;;;4796510;29;20045;-87
2021/06/13 04:44:35;;;;;;;9.15;4.30;;;13.40;92.70;;;;;;4794700;29;20169;-86
2021/06/13 04:47:16;;;;;;;12.80;5.13;;;13.50;92.70;;;;;;4795141;29;20038;-87
2021/06/13 04:52:44;;;;;;;9.48;5.03;;;14.00;92.30;;;;;;4791142;29;20049;-86
2021/06/13 04:55:26;;;;;;;13.07;5.28;;;14.30;92.20;;;;;;4811001;29;20046;-86
2021/06/13 04:58:12;;;;;;;12.50;5.82;;;14.50;92.00;;;;;;4783344;29;20092;-86
2021/06/13 05:00:40;;;;;;;13.55;4.88;;;14.80;91.70;;;;;;4794717;29;20058;-86
2021/06/13 05:03:14;;;;;;;9.75;5.25;;;15.00;91.50;;;;;;4828951;29;20890;-86
2021/06/13 05:05:52;;;;;;;11.38;4.18;;;15.10;91.30;;;;;;4774186;29;20060;-85
2021/06/13 05:08:22;;;;;;;10.38;4.60;;;15.20;91.10;;;;;;4804764;29;20050;-86
2021/06/13 05:10:49;;;;;;;11.18;5.20;;;15.40;91.00;;;;;;4813922;29;20046;-86
2021/06/13 05:13:19;;;;;;;11.88;4.35;;;15.50;90.80;;;;;;4797716;29;20054;-86
2021/06/13 05:15:48;;;;;;;15.25;5.65;;;15.50;90.70;;;;;;4813272;29;20054;-85
2021/06/13 05:18:26;;;;;;;14.38;4.95;;;15.60;90.60;;;;;;4800612;29;20517;-85
2021/06/13 05:21:00;;;;;;;9.20;4.40;;;15.70;90.50;;;;;;4810156;29;20034;-86
2021/06/13 05:23:36;;;;;;;9.68;4.93;;;15.80;90.40;;;;;;4812332;29;20060;-86
2021/06/13 05:26:19;;;;;;;12.05;4.32;;;15.90;90.20;;;;;;4809779;29;20070;-84
2021/06/13 05:28:59;;;;;;;12.93;4.97;;;16.00;90.10;;;;;;4789591;29;20065;-85
2021/06/13 05:31:27;;;;;;;8.40;4.65;;;16.20;89.90;;;;;;4793658;29;20042;-84
2021/06/13 05:33:54;;;;;;;10.18;4.47;;;16.30;89.60;;;;;;4792574;29;20437;-83
2021/06/13 05:36:26;;;;;;;7.85;4.03;;;16.50;89.10;;;;;;4824175;29;20084;-84
2021/06/13 05:38:58;;;;;;;9.27;4.80;;;16.60;88.60;;;;;;4799535;29;20062;-85
2021/06/13 05:41:49;;;;;;;10.40;4.43;;;16.70;88.10;;;;;;4788669;29;20046;-85
2021/06/13 05:44:21;;;;;;;7.50;3.88;;;16.70;87.80;;;;;;4798946;29;20049;-85
2021/06/13 05:50:52;;;;;;;12.68;4.55;;;17.00;87.20;;;;;;4790767;29;20058;-85
2021/06/13 05:53:43;;;;;;;9.43;4.30;;;17.20;86.60;;;;;;4747357;29;20039;-87
2021/06/13 05:56:48;;;;;;;11.00;3.67;;;17.30;86.20;;;;;;4703453;30;20049;-85
2021/06/13 05:59:15;;;;;;;10.57;3.53;;;17.50;85.90;;;;;;4695651;30;20044;-85
2021/06/13 06:01:45;;;;;;;12.07;4.32;;;17.70;85.50;;;;;;4737964;29;20055;-85
2021/06/13 06:08:02;;;;;;;10.95;4.13;;;18.30;82.80;;;;;;4775907;29;20057;-85
2021/06/13 06:11:02;;;;;;;10.02;3.47;;;18.50;82.00;;;;;;4754827;29;20062;-85
2021/06/13 06:13:43;;;;;;;8.65;3.97;;;18.60;81.40;;;;;;4779455;29;20365;-86
2021/06/13 06:16:31;;;;;;;12.68;4.35;;;18.60;81.10;;;;;;4792522;29;20426;-86
2021/06/13 06:19:01;;;;;;;10.35;4.50;;;18.80;80.30;;;;;;4810277;29;20517;-87
2021/06/13 06:22:04;;;;;;;;;;;;;;;;;;;;;
2021/06/13 06:25:30;;;;;;;7.55;3.15;;;19.00;80.00;;;;;;4822877;29;19916;-86
2021/06/13 06:28:15;;;;;;;13.18;3.70;;;19.40;78.70;;;;;;4814197;29;20709;-86
2021/06/13 06:30:54;;;;;;;9.45;3.88;;;19.70;77.50;;;;;;4807282;29;20048;-87
2021/06/13 06:33:32;;;;;;;9.95;3.70;;;19.80;76.30;;;;;;4808353;29;20046;-85
2021/06/13 06:36:35;;;;;;;8.45;2.78;;;19.90;75.40;;;;;;4811239;29;20497;-84
2021/06/13 06:39:51;;;;;;;7.93;2.90;;;19.90;74.70;;;;;;4784622;29;20410;-85
2021/06/13 06:42:37;;;;;;;6.40;2.80;;;19.90;74.60;;;;;;4797222;29;20050;-85
2021/06/13 06:45:15;;;;;;;10.35;3.50;;;19.90;74.40;;;;;;4795028;29;20669;-86
2021/06/13 06:48:13;;;;;;;6.80;2.50;;;19.90;74.10;;;;;;4795949;29;20057;-85
2021/06/13 06:50:47;;;;;;;5.47;2.20;;;19.90;73.60;;;;;;4776687;29;20054;-86
2021/06/13 06:54:18;;;;;;;;;;;;;;;;;;;;;
2021/06/13 07:02:14;;;;;;;9.05;2.25;;;20.00;71.60;;;;;;4809248;29;20061;-86
2021/06/13 07:04:41;;;;;;;7.53;2.72;;;19.90;70.80;;;;;;4758999;29;20051;-86
2021/06/13 07:07:22;;;;;;;6.97;2.22;;;19.90;69.60;;;;;;4776471;29;20050;-86
2021/06/13 07:10:10;;;;;;;8.27;2.00;;;19.80;69.00;;;;;;4772867;29;20058;-84
2021/06/13 07:12:51;;;;;;;;;;;;;;;;;;;;;
2021/06/13 07:15:45;;;;;;;6.28;2.03;;;19.90;69.30;;;;;;4772825;29;20491;-85
2021/06/13 07:18:36;;;;;;;6.78;1.95;;;20.20;69.30;;;;;;4776088;29;20054;-85
2021/06/13 07:52:40;;;;;;;7.38;2.20;;;21.90;62.50;;;;;;4735428;30;20063;-89
2021/06/13 08:04:53;;;;;;;;;;;;;;;;;;;;;
2021/06/13 08:17:47;;;;;;;7.20;2.30;;;21.90;60.80;;;;;;4734043;30;20148;-92
2021/06/13 08:25:31;;;;;;;6.78;2.05;;;22.10;60.00;;;;;;4833512;29;20061;-89
2021/06/13 08:27:57;;;;;;;6.28;2.25;;;22.20;59.60;;;;;;4795338;29;20038;-80
2021/06/13 08:30:26;;;;;;;8.15;2.20;;;22.00;60.30;;;;;;4821417;29;20054;-82
2021/06/13 08:32:53;;;;;;;6.50;1.95;;;22.00;61.00;;;;;;4827975;29;20045;-80
2021/06/13 08:35:19;;;;;;;8.13;2.30;;;22.20;61.00;;;;;;4825715;29;20049;-83
2021/06/13 08:37:46;;;;;;;7.10;3.00;;;22.40;60.20;;;;;;4808578;29;20046;-82
2021/06/13 08:40:13;;;;;;;6.68;2.65;;;22.60;59.10;;;;;;4817253;29;20046;-83
2021/06/13 08:42:42;;;;;;;7.30;1.83;;;22.80;58.80;;;;;;4811101;29;20490;-82
2021/06/13 08:45:12;;;;;;;5.35;2.03;;;23.00;58.50;;;;;;4821185;29;20030;-82
2021/06/13 08:47:39;;;;;;;6.50;2.42;;;23.20;57.90;;;;;;4814260;29;20069;-81
2021/06/13 08:50:08;;;;;;;5.75;1.92;;;23.40;57.20;;;;;;4821623;29;20057;-82
2021/06/13 08:52:34;;;;;;;6.78;2.50;;;23.50;56.80;;;;;;4805766;29;20394;-82
2021/06/13 08:55:01;;;;;;;5.13;2.30;;;23.60;56.80;;;;;;4793054;29;20051;-82
2021/06/13 08:57:28;;;;;;;6.75;1.88;;;23.80;55.70;;;;;;4802669;29;20038;-82
2021/06/13 08:59:54;;;;;;;5.32;2.38;;;23.80;55.30;;;;;;4807781;29;20042;-83
2021/06/13 09:02:21;;;;;;;6.03;2.20;;;23.80;55.30;;;;;;4792469;29;20053;-80
2021/06/13 09:04:48;;;;;;;5.85;1.83;;;23.90;55.80;;;;;;4787544;29;20513;-80
2021/06/13 09:07:26;;;;;;;6.38;1.85;;;24.10;55.70;;;;;;4812882;29;20050;-79
2021/06/13 09:09:54;;;;;;;4.85;2.00;;;24.20;54.40;;;;;;4813045;29;20069;-80
2021/06/13 09:12:23;;;;;;;5.18;1.90;;;24.20;54.40;;;;;;4793694;29;20034;-79
2021/06/13 09:14:52;;;;;;;7.72;2.78;;;24.20;54.40;;;;;;4815352;29;20050;-80
2021/06/13 09:17:29;;;;;;;6.63;2.10;;;24.20;54.60;;;;;;4800359;29;20410;-81
2021/06/13 09:20:05;;;;;;;7.47;2.30;;;24.20;54.50;;;;;;4815936;29;20034;-80
2021/06/13 09:22:32;;;;;;;6.20;2.33;;;24.40;54.50;;;;;;4816084;29;20054;-80
2021/06/13 09:25:13;;;;;;;5.10;1.65;;;24.50;54.50;;;;;;4818606;29;20399;-80
2021/06/13 09:28:01;;;;;;;4.13;2.15;;;24.60;54.70;;;;;;4814040;29;20049;-79
2021/06/13 09:30:32;;;;;;;8.23;3.20;;;24.70;54.50;;;;;;4816893;29;20584;-80
2021/06/13 09:33:05;;;;;;;7.50;2.70;;;24.70;53.30;;;;;;4801518;29;20926;-80
2021/06/13 09:35:33;;;;;;;7.20;2.03;;;24.70;52.70;;;;;;4818048;29;20046;-80
2021/06/13 09:38:26;;;;;;;7.38;2.25;;;24.60;53.40;;;;;;4819839;29;20053;-80
2021/06/13 09:40:57;;;;;;;6.78;2.38;;;24.60;53.40;;;;;;4812370;29;20061;-81
2021/06/13 09:43:27;;;;;;;5.97;2.17;;;24.60;53.90;;;;;;4816128;29;20039;-80
2021/06/13 09:46:01;;;;;;;5.60;2.55;;;24.70;54.00;;;;;;4820870;29;20034;-80
2021/06/13 09:48:29;;;;;;;7.35;2.05;;;24.80;53.70;;;;;;4818425;29;20402;-80
2021/06/13 09:51:07;;;;;;;5.72;2.13;;;25.00;53.40;;;;;;4788116;29;20046;-80
2021/06/13 09:53:39;;;;;;;7.68;2.90;;;25.00;52.40;;;;;;4820278;29;20046;-79
2021/06/13 09:56:07;;;;;;;;;;;25.00;52.50;;;;;;4818309;29;20070;-81
2021/06/13 09:58:34;;;;;;;5.82;2.50;;;25.10;52.40;;;;;;4821831;29;19927;-80
2021/06/13 10:01:10;;;;;;;5.95;2.22;;;25.30;52.50;;;;;;4815674;29;20054;-81
2021/06/13 10:03:38;;;;;;;5.22;2.15;;;25.40;51.40;;;;;;4808601;29;20053;-84
2021/06/13 10:06:07;;;;;;;4.47;1.73;;;25.40;51.40;;;;;;4793380;29;20510;-80
2021/06/13 10:08:34;;;;;;;5.97;2.00;;;25.60;51.70;;;;;;4821694;29;20053;-82
2021/06/13 10:11:03;;;;;;;5.68;2.05;;;25.70;51.70;;;;;;4810364;29;20046;-83
2021/06/13 10:13:47;;;;;;;6.20;1.92;;;25.80;51.00;;;;;;4810979;29;20513;-81
2021/06/13 10:16:32;;;;;;;6.43;2.20;;;25.70;50.80;;;;;;4820988;29;20687;-83
2021/06/13 10:19:03;;;;;;;6.18;2.67;;;25.70;50.80;;;;;;4806985;29;20073;-82
2021/06/13 10:21:35;;;;;;;6.35;2.67;;;25.70;50.30;;;;;;4815660;29;20045;-82
2021/06/13 10:24:05;;;;;;;4.07;2.00;;;25.90;50.90;;;;;;4807580;29;20045;-82
2021/06/13 10:26:36;;;;;;;8.77;2.42;;;26.10;51.30;;;;;;4789227;29;20402;-84
2021/06/13 10:29:04;;;;;;;6.80;2.17;;;26.30;50.20;;;;;;4805997;29;20064;-82
2021/06/13 10:31:32;;;;;;;5.40;2.03;;;26.40;49.70;;;;;;4821468;29;20235;-82
2021/06/13 10:33:59;;;;;;;3.97;1.60;;;26.50;49.50;;;;;;4819026;29;20578;-84
2021/06/13 10:36:27;;;;;;;6.38;2.20;;;26.70;49.50;;;;;;4817820;29;20034;-81
2021/06/13 10:38:54;;;;;;;5.55;2.70;;;26.80;49.30;;;;;;4825322;29;20044;-81
2021/06/13 10:41:20;;;;;;;5.32;2.00;;;27.00;49.00;;;;;;4803628;29;20038;-81
2021/06/13 10:43:47;;;;;;;5.50;1.92;;;27.20;49.10;;;;;;4817850;29;20081;-82
2021/06/13 10:46:17;;;;;;;7.13;2.28;;;27.40;48.70;;;;;;4786988;29;20042;-84
2021/06/13 10:48:49;;;;;;;7.55;3.05;;;27.60;48.40;;;;;;4793305;29;20073;-81
2021/06/13 10:51:28;;;;;;;5.55;2.40;;;27.90;47.90;;;;;;4829462;29;20038;-84
2021/06/13 10:54:23;;;;;;;5.75;2.63;;;28.10;47.10;;;;;;4830389;29;20050;-82
2021/06/13 10:56:55;;;;;;;8.07;2.88;;;28.40;46.50;;;;;;4805700;29;20049;-81
2021/06/13 10:59:22;;;;;;;4.90;2.45;;;28.60;46.00;;;;;;4829769;29;20049;-83
2021/06/13 11:01:59;;;;;;;8.32;3.03;;;28.70;45.20;;;;;;4801983;29;20038;-84
2021/06/13 11:04:48;;;;;;;5.32;2.45;;;28.80;44.60;;;;;;4795351;29;20433;-82
2021/06/13 11:10:06;;;;;;;3.70;1.95;;;28.80;43.90;;;;;;4815302;29;20525;-82
2021/06/13 11:12:55;;;;;;;6.70;3.15;;;29.00;44.20;;;;;;4821082;29;20050;-82
2021/06/13 11:15:30;;;;;;;8.20;2.25;;;29.40;44.10;;;;;;4817939;29;20580;-82
2021/06/13 11:18:02;;;;;;;6.13;2.00;;;29.80;43.10;;;;;;4816290;29;20449;-81
2021/06/13 11:23:23;;;;;;;5.28;2.05;;;30.40;41.90;;;;;;4818017;29;19916;-81
2021/06/13 11:25:57;;;;;;;5.13;1.98;;;30.60;42.10;;;;;;4808998;29;20037;-82
2021/06/13 11:28:33;;;;;;;5.50;2.15;;;31.00;40.40;;;;;;4807120;29;20042;-82
2021/06/13 11:31:09;;;;;;;5.95;2.22;;;31.10;40.30;;;;;;4807047;29;20045;-80
2021/06/13 11:33:40;;;;;;;7.07;3.58;;;31.10;39.80;;;;;;4819725;29;20042;-84
2021/06/13 11:36:16;;;;;;;5.35;2.65;;;31.20;39.80;;;;;;4821743;29;20049;-85
2021/06/13 11:38:46;;;;;;;7.85;2.17;;;31.30;38.30;;;;;;4804519;29;20050;-85
2021/06/13 11:41:24;;;;;;;5.85;2.88;;;31.40;38.10;;;;;;4818209;29;20050;-84
2021/06/13 11:43:51;;;;;;;5.68;3.20;;;31.50;37.10;;;;;;4804435;29;20038;-85
2021/06/13 11:46:33;;;;;;;5.13;2.33;;;31.50;37.10;;;;;;4802906;29;20402;-85
2021/06/13 11:49:00;;;;;;;;;;;31.40;37.70;;;;;;4820386;29;20066;-85
2021/06/13 11:51:27;;;;;;;10.48;2.55;;;31.70;37.90;;;;;;4821677;29;19921;-82
2021/06/13 11:54:02;;;;;;;4.40;2.20;;;32.00;37.50;;;;;;4807113;29;20034;-81
2021/06/13 11:56:35;;;;;;;4.82;2.45;;;32.30;37.10;;;;;;4806412;29;20037;-82
2021/06/13 11:59:06;;;;;;;5.43;1.63;;;32.70;36.90;;;;;;4803913;29;20041;-83
2021/06/13 12:01:36;;;;;;;5.68;1.90;;;33.10;37.40;;;;;;4800835;29;20045;-81
2021/06/13 12:04:10;;;;;;;4.22;1.88;;;33.50;36.00;;;;;;4793055;29;20048;-81
2021/06/13 12:06:37;;;;;;;4.03;2.22;;;33.90;35.50;;;;;;4820588;29;20042;-81
2021/06/13 12:09:09;;;;;;;3.20;1.95;;;34.10;34.50;;;;;;4815011;29;20038;-80
2021/06/13 12:11:53;;;;;;;14.77;3.55;;;34.00;34.30;;;;;;4788637;29;20394;-82
2021/06/13 12:14:24;;;;;;;36.45;4.30;;;34.30;34.70;;;;;;4804040;29;20053;-81
2021/06/13 12:17:16;;;;;;;5.07;2.28;;;34.70;34.50;;;;;;4820421;29;20502;-82
2021/06/13 12:19:45;;;;;;;;;;;35.20;34.20;;;;;;4808306;29;20053;-82
2021/06/13 12:22:30;;;;;;;5.38;2.22;;;35.60;33.30;;;;;;4800131;29;20427;-82
2021/06/13 12:27:40;;;;;;;4.10;2.30;;;36.00;32.70;;;;;;4801047;29;20049;-81
2021/06/13 12:30:17;;;;;;;6.68;3.30;;;36.20;32.60;;;;;;4815675;29;20054;-81
2021/06/13 12:32:59;;;;;;;5.45;2.58;;;36.30;31.70;;;;;;4800756;29;20490;-82
2021/06/13 12:35:27;;;;;;;;;;;36.20;31.20;;;;;;4807105;29;20051;-83
2021/06/13 12:38:04;;;;;;;5.10;1.70;;;36.30;30.70;;;;;;4804823;29;19942;-83
2021/06/13 12:40:35;;;;;;;5.15;1.90;;;36.20;30.80;;;;;;4798321;29;20047;-83
2021/06/13 12:43:03;;;;;;;7.85;2.13;;;36.20;30.10;;;;;;4813152;29;20046;-82
2021/06/13 12:45:30;;;;;;;5.93;1.98;;;36.30;30.20;;;;;;4784126;29;20042;-83
2021/06/13 12:47:59;;;;;;;3.80;1.40;;;36.40;29.80;;;;;;4785257;29;20074;-87
2021/06/13 12:50:33;;;;;;;4.78;1.65;;;36.50;30.00;;;;;;4787414;29;20394;-82
2021/06/13 12:53:01;;;;;;;6.25;3.47;;;36.80;29.70;;;;;;4800424;29;20064;-82
2021/06/13 12:55:45;;;;;;;5.03;2.40;;;36.90;29.40;;;;;;4817188;29;20034;-82
2021/06/13 12:58:14;;;;;;;4.78;1.60;;;36.90;29.10;;;;;;4819446;29;20064;-83
2021/06/13 13:00:41;;;;;;;5.65;1.75;;;36.90;29.10;;;;;;4789160;29;20347;-83
2021/06/13 13:03:19;;;;;;;6.38;3.47;;;36.90;29.20;;;;;;4795901;29;20060;-83
2021/06/13 13:06:07;;;;;;;5.70;1.50;;;37.10;28.90;;;;;;4805411;29;20050;-83
2021/06/13 13:08:50;;;;;;;4.78;2.00;;;37.50;28.90;;;;;;4822262;29;20041;-82
2021/06/13 13:11:24;;;;;;;4.63;1.73;;;37.80;29.60;;;;;;4818563;29;20049;-81
2021/06/13 13:13:52;;;;;;;18.45;4.25;;;38.20;28.90;;;;;;4820018;29;20042;-80
2021/06/13 13:16:24;;;;;;;6.05;3.72;;;38.60;28.70;;;;;;4804679;29;20403;-83
2021/06/13 13:18:51;;;;;;;8.18;2.47;;;39.00;29.00;;;;;;4806098;29;20045;-83
2021/06/13 13:21:40;;;;;;;6.03;2.67;;;39.30;28.50;;;;;;4820965;29;20042;-81
2021/06/13 13:24:27;;;;;;;15.15;13.68;;;39.60;28.70;;;;;;4821004;29;20046;-81
2021/06/13 13:27:07;;;;;;;4.32;1.95;;;39.60;27.80;;;;;;4823078;29;20047;-81
2021/06/13 13:29:38;;;;;;;3.53;1.60;;;39.70;27.50;;;;;;4820999;29;20034;-84
2021/06/13 13:32:05;;;;;;;3.35;1.70;;;39.50;27.40;;;;;;4821091;29;20497;-82
2021/06/13 13:34:34;;;;;;;5.28;2.83;;;39.40;27.30;;;;;;4805001;29;20046;-81
2021/06/13 13:37:14;;;;;;;6.55;5.25;;;39.20;27.10;;;;;;4791955;29;20428;-82
2021/06/13 13:39:41;;;;;;;7.13;3.50;;;39.20;27.20;;;;;;4821645;29;20050;-81
2021/06/13 13:42:10;;;;;;;19.30;3.40;;;39.30;27.00;;;;;;4808853;29;20031;-82
2021/06/13 13:44:40;;;;;;;12.07;3.50;;;39.50;26.80;;;;;;4808166;29;20140;-81
2021/06/13 13:47:10;;;;;;;33.40;5.10;;;39.60;26.70;;;;;;4806311;29;20041;-82
2021/06/13 13:49:39;;;;;;;5.55;2.05;;;39.60;26.90;;;;;;4800985;29;20067;-83
2021/06/13 13:52:19;;;;;;;5.40;1.80;;;39.70;26.80;;;;;;4823438;29;20045;-82
2021/06/13 13:54:46;;;;;;;4.00;1.73;;;39.70;26.70;;;;;;4795503;29;20042;-82
2021/06/13 13:57:13;;;;;;;4.03;1.80;;;39.50;26.30;;;;;;4795456;29;20399;-82
2021/06/13 13:59:46;;;;;;;4.28;2.03;;;39.80;26.70;;;;;;4813272;29;20052;-82
2021/06/13 14:02:14;;;;;;;3.28;1.85;;;40.20;26.70;;;;;;4808021;29;20505;-83
2021/06/13 14:04:40;;;;;;;4.05;2.70;;;40.50;26.00;;;;;;4812977;29;20046;-82
2021/06/13 14:07:08;;;;;;;3.53;1.77;;;40.50;26.00;;;;;;4798504;29;20050;-85
2021/06/13 14:09:35;;;;;;;3.20;1.60;;;40.40;26.00;;;;;;4808363;29;20052;-83
2021/06/13 14:12:01;;;;;;;4.20;1.88;;;40.40;25.70;;;;;;4825192;29;20382;-83
2021/06/13 14:14:29;;;;;;;9.02;1.98;;;40.40;25.90;;;;;;4800638;29;20061;-83
2021/06/13 14:16:56;;;;;;;5.15;1.77;;;40.50;25.90;;;;;;4808331;29;20061;-82
2021/06/13 14:19:23;;;;;;;3.10;1.80;;;40.70;25.60;;;;;;4801857;29;20038;-83
2021/06/13 14:21:52;;;;;;;3.28;1.63;;;40.90;25.90;;;;;;4809278;29;20041;-82
2021/06/13 14:24:20;;;;;;;4.30;1.95;;;41.20;25.90;;;;;;4817230;29;20038;-83
2021/06/13 14:26:50;;;;;;;3.85;1.50;;;41.50;25.60;;;;;;4806036;29;20042;-83
2021/06/13 14:29:19;;;;;;;7.75;2.58;;;41.60;25.70;;;;;;4816315;29;20046;-82
2021/06/13 14:31:45;;;;;;;9.75;2.90;;;41.30;25.50;;;;;;4804622;29;20042;-82
2021/06/13 14:34:12;;;;;;;6.35;3.15;;;40.80;25.90;;;;;;4806479;29;20402;-83
2021/06/13 14:36:39;;;;;;;4.97;2.80;;;40.40;26.50;;;;;;4789471;29;20059;-83
2021/06/13 14:39:05;;;;;;;8.88;2.53;;;40.40;26.40;;;;;;4809683;29;20514;-84
2021/06/13 14:41:32;;;;;;;9.52;2.55;;;40.30;26.30;;;;;;4805578;29;20053;-83
2021/06/13 14:43:59;;;;;;;3.95;1.83;;;40.10;26.20;;;;;;4822937;29;20490;-85
2021/06/13 14:46:25;;;;;;;5.30;2.10;;;40.00;26.50;;;;;;4809325;29;20089;-83
2021/06/13 14:48:52;;;;;;;4.13;1.75;;;39.30;26.40;;;;;;4804821;29;20066;-82
2021/06/13 14:51:21;;;;;;;4.40;2.15;;;38.60;27.10;;;;;;4776759;29;20043;-82
2021/06/13 14:53:51;;;;;;;4.22;1.92;;;38.60;27.50;;;;;;4804612;29;20047;-82
2021/06/13 14:56:21;;;;;;;4.88;1.95;;;39.00;27.50;;;;;;4818613;29;20071;-82
2021/06/13 14:58:48;;;;;;;4.27;2.10;;;39.30;27.10;;;;;;4805959;29;20073;-82
2021/06/13 15:01:15;;;;;;;7.18;2.42;;;39.10;26.60;;;;;;4806372;29;20034;-82
2021/06/13 15:03:41;;;;;;;6.35;2.42;;;38.90;26.90;;;;;;4824567;29;20372;-82
2021/06/13 15:06:08;;;;;;;4.43;1.90;;;38.80;27.20;;;;;;4808952;29;20513;-82
2021/06/13 15:08:38;;;;;;;5.15;2.03;;;38.70;27.20;;;;;;4825194;29;20041;-82
2021/06/13 15:11:08;;;;;;;4.35;2.25;;;38.50;27.90;;;;;;4791312;29;20057;-83
2021/06/13 15:13:35;;;;;;;5.35;3.35;;;38.80;27.40;;;;;;4806619;29;20041;-82
2021/06/13 15:16:02;;;;;;;4.97;2.75;;;39.20;27.20;;;;;;4822296;29;20064;-83
2021/06/13 15:18:28;;;;;;;4.93;1.77;;;39.40;26.90;;;;;;4791114;29;20047;-82
2021/06/13 15:20:55;;;;;;;4.00;1.58;;;39.50;26.80;;;;;;4818606;29;20498;-82
2021/06/13 15:23:22;;;;;;;4.63;2.00;;;39.90;27.00;;;;;;4803191;29;20050;-82
2021/06/13 15:25:48;;;;;;;6.57;2.28;;;40.10;26.70;;;;;;4823459;29;20069;-83
2021/06/13 15:28:15;;;;;;;4.72;2.25;;;40.30;26.40;;;;;;4777538;29;20038;-83
2021/06/13 15:30:42;;;;;;;5.15;2.40;;;40.20;26.50;;;;;;4824735;29;20500;-82
2021/06/13 15:33:09;;;;;;;3.63;1.50;;;40.20;26.40;;;;;;4776751;29;20149;-82
2021/06/13 15:35:36;;;;;;;5.30;2.22;;;40.30;26.50;;;;;;4803165;29;20046;-82
2021/06/13 15:38:03;;;;;;;4.22;1.92;;;40.50;26.20;;;;;;4773525;29;20054;-82
2021/06/13 15:40:30;;;;;;;4.05;1.60;;;40.60;26.10;;;;;;4815086;29;20038;-84
2021/06/13 15:43:02;;;;;;;5.25;2.10;;;40.60;26.30;;;;;;4796809;29;20521;-86
2021/06/13 15:45:29;;;;;;;5.20;2.00;;;40.90;26.40;;;;;;4809555;29;20057;-83
2021/06/13 15:47:58;;;;;;;4.05;1.55;;;41.10;26.00;;;;;;4826146;29;20073;-83
2021/06/13 15:50:26;;;;;;;2.92;1.48;;;41.20;26.00;;;;;;4824905;29;20045;-84
2021/06/13 15:52:52;;;;;;;5.07;3.13;;;41.20;26.50;;;;;;4807050;29;20042;-83
2021/06/13 15:55:21;;;;;;;3.03;1.92;;;41.20;25.90;;;;;;4785655;29;20569;-82
2021/06/13 15:57:48;;;;;;;11.38;10.23;;;41.10;25.80;;;;;;4804516;29;20050;-83
2021/06/13 16:00:15;;;;;;;5.75;2.55;;;41.00;25.60;;;;;;4794972;29;20046;-81
2021/06/13 16:02:45;;;;;;;;;;;40.80;25.60;;;;;;4790892;29;20612;-83
2021/06/13 16:05:12;;;;;;;3.88;2.38;;;40.40;25.70;;;;;;4824441;29;19927;-85
2021/06/13 16:07:39;;;;;;;4.47;3.67;;;39.20;26.20;;;;;;4768405;29;20485;-84
2021/06/13 16:10:07;;;;;;;4.60;3.38;;;37.70;27.30;;;;;;4803417;29;20061;-85
2021/06/13 16:12:33;;;;;;;6.78;3.28;;;36.20;28.40;;;;;;4817053;29;20397;-84
2021/06/13 16:15:00;;;;;;;4.32;2.20;;;34.70;29.40;;;;;;4823645;29;20517;-82
2021/06/13 16:17:27;;;;;;;6.03;2.60;;;33.40;30.40;;;;;;4824702;29;20053;-84
2021/06/13 16:19:54;;;;;;;4.07;2.90;;;32.30;31.60;;;;;;4790624;29;20410;-80
2021/06/13 16:22:20;;;;;;;4.68;3.08;;;31.40;32.60;;;;;;4803541;29;20057;-83
2021/06/13 16:24:47;;;;;;;4.03;2.47;;;30.70;33.40;;;;;;4788956;29;20046;-82
2021/06/13 16:27:13;;;;;;;6.93;2.58;;;30.10;34.00;;;;;;4808498;29;20049;-80
2021/06/13 16:29:40;;;;;;;5.75;2.88;;;29.60;34.70;;;;;;4791835;29;20042;-82
2021/06/13 16:32:07;;;;;;;4.57;2.00;;;29.20;35.60;;;;;;4822025;29;20489;-82
2021/06/13 16:34:34;;;;;;;7.65;2.22;;;28.90;35.80;;;;;;4823518;29;20066;-84
2021/06/13 16:37:02;;;;;;;7.18;2.25;;;28.50;36.40;;;;;;4801587;29;20054;-83
2021/06/13 16:39:29;;;;;;;6.05;1.95;;;28.20;36.70;;;;;;4807825;29;20054;-83
2021/06/13 16:41:58;;;;;;;6.03;2.83;;;27.90;37.00;;;;;;4826530;29;20513;-82
2021/06/13 16:44:25;;;;;;;5.25;2.65;;;27.70;37.80;;;;;;4804789;29;20064;-84
2021/06/13 16:46:52;;;;;;;6.03;3.25;;;27.50;38.10;;;;;;4826022;29;20418;-83
2021/06/13 16:49:20;;;;;;;5.18;2.20;;;27.30;38.60;;;;;;4803258;29;20403;-84
2021/06/13 16:51:47;;;;;;;4.85;2.38;;;27.20;38.80;;;;;;4823385;29;20053;-83